createdAt,value
2022-08-31T00:01:57.336Z,82
2022-08-31T00:13:30.865Z,116
2022-08-31T00:30:31.550Z,98
2022-08-31T00:36:11.910Z,96
2022-08-31T00:41:52.006Z,110
2022-08-31T00:47:34.796Z,96
2022-08-31T00:53:15.427Z,102
2022-08-31T00:58:56.153Z,106
2022-08-31T01:04:36.405Z,100
2022-08-31T01:10:19.693Z,106
2022-08-31T01:16:00.482Z,98
2022-08-31T01:21:40.656Z,110
2022-08-31T01:27:20.777Z,98
2022-08-31T01:33:00.946Z,104
2022-08-31T01:38:41.230Z,100
2022-08-31T01:44:21.366Z,98
2022-08-31T01:50:01.387Z,104
2022-08-31T01:55:41.280Z,122
2022-08-31T02:01:35.592Z,100
2022-08-31T02:07:15.946Z,98
2022-08-31T02:29:56.904Z,96
2022-08-31T02:35:37.123Z,106
2022-08-31T02:41:17.207Z,104
2022-08-31T02:46:57.279Z,90
2022-08-31T02:52:37.438Z,92
2022-08-31T02:58:24.645Z,104
2022-08-31T03:04:05.034Z,90
2022-08-31T03:09:45.277Z,94
2022-08-31T03:15:25.612Z,100
2022-08-31T03:21:05.851Z,104
2022-08-31T03:26:46.145Z,106
2022-08-31T03:32:26.183Z,98
2022-08-31T03:38:07.833Z,100
2022-08-31T03:57:02.111Z,92
2022-08-31T04:02:51.277Z,106
2022-08-31T04:08:38.287Z,104
2022-08-31T04:14:19.194Z,92
2022-08-31T04:20:15.232Z,100
2022-08-31T04:25:55.516Z,106
2022-08-31T04:31:39.388Z,94
2022-08-31T04:37:22.711Z,92
2022-08-31T04:43:26.129Z,106
2022-08-31T04:49:06.746Z,98
2022-08-31T04:54:46.875Z,96
2022-08-31T05:00:27.004Z,92
2022-08-31T05:06:07.523Z,104
2022-08-31T05:11:47.893Z,90
2022-08-31T05:17:28.002Z,100
2022-08-31T05:23:07.878Z,98
2022-08-31T05:40:10.185Z,90
2022-08-31T05:45:51.369Z,90
2022-08-31T05:51:41.376Z,90
2022-08-31T05:57:27.695Z,98
2022-08-31T06:03:08.190Z,96
2022-08-31T06:08:51.682Z,84
2022-08-31T06:14:32.364Z,98
2022-08-31T06:20:18.674Z,94
2022-08-31T06:25:58.973Z,90
2022-08-31T06:31:43.277Z,94
2022-08-31T06:37:23.650Z,94
2022-08-31T06:43:03.913Z,92
2022-08-31T06:48:44.060Z,98
2022-08-31T06:54:31.539Z,106
2022-08-31T07:00:12.195Z,86
2022-08-31T07:05:52.521Z,100
2022-08-31T07:22:53.741Z,80
2022-08-31T07:28:33.819Z,94
2022-08-31T07:34:14.260Z,98
2022-08-31T07:40:06.350Z,86
2022-08-31T07:45:48.058Z,90
2022-08-31T07:51:29.142Z,90
2022-08-31T07:57:10.653Z,92
2022-08-31T08:02:55.896Z,104
2022-08-31T08:13:51.865Z,98
2022-08-31T08:19:34.745Z,104
2022-08-31T08:25:27.446Z,94
2022-08-31T08:31:08.602Z,94
2022-08-31T08:36:49.537Z,118
2022-08-31T08:42:29.926Z,102
2022-08-31T08:48:10.430Z,112
2022-08-31T08:53:50.947Z,104
2022-08-31T08:59:31.246Z,106
2022-08-31T09:05:11.428Z,98
2022-08-31T09:10:51.908Z,128
2022-08-31T09:16:52.795Z,98
2022-08-31T09:22:33.262Z,110
2022-08-31T09:33:54.076Z,62
2022-08-31T09:39:46.958Z,48
2022-08-31T09:45:30.183Z,58
2022-08-31T09:51:10.405Z,56
2022-08-31T09:56:50.835Z,78
2022-08-31T10:02:30.859Z,68
2022-08-31T10:08:19.890Z,52
2022-08-31T10:14:00.790Z,62
2022-08-31T10:19:50.432Z,64
2022-08-31T10:25:30.533Z,78
2022-08-31T10:31:11.202Z,54
2022-08-31T10:36:51.149Z,62
2022-08-31T10:42:31.834Z,66
2022-08-31T10:48:11.980Z,84
2022-08-31T10:54:07.072Z,58
2022-08-31T10:59:47.929Z,50
2022-08-31T11:11:09.767Z,64
2022-08-31T11:16:58.904Z,56
2022-08-31T11:22:39.452Z,56
2022-08-31T11:28:24.577Z,42
2022-08-31T11:34:24.092Z,36
2022-08-31T11:40:07.097Z,32
2022-08-31T11:46:06.541Z,4
2022-08-31T11:51:49.663Z,4
2022-08-31T11:57:43.999Z,2
2022-08-31T12:03:30.129Z,0
2022-08-31T12:09:16.490Z,2
2022-08-31T12:15:06.114Z,6
2022-08-31T12:20:47.393Z,10
2022-08-31T12:26:27.431Z,4
2022-08-31T12:43:38.578Z,22
2022-08-31T12:49:19.948Z,6
2022-08-31T12:55:00.242Z,8
2022-08-31T13:00:42.636Z,8
2022-08-31T13:06:26.155Z,34
2022-08-31T13:12:09.576Z,12
2022-08-31T13:17:50.022Z,4
2022-08-31T13:23:33.184Z,18
2022-08-31T13:29:15.798Z,6
2022-08-31T13:34:58.729Z,2
2022-08-31T13:40:42.981Z,2
2022-08-31T13:46:45.242Z,4
2022-08-31T13:52:43.653Z,4
2022-08-31T13:58:25.271Z,6
2022-08-31T14:04:13.095Z,10
2022-08-31T14:21:24.846Z,102
2022-08-31T14:27:04.873Z,86
2022-08-31T14:32:44.800Z,110
2022-08-31T14:38:25.031Z,88
2022-08-31T14:44:06.566Z,76
2022-08-31T14:49:46.986Z,86
2022-08-31T14:55:27.100Z,98
2022-08-31T15:01:08.564Z,90
2022-08-31T15:06:48.930Z,98
2022-08-31T15:12:29.251Z,92
2022-08-31T15:18:09.426Z,88
2022-08-31T15:23:49.885Z,98
2022-08-31T15:29:30.970Z,82
2022-08-31T15:35:14.201Z,94
2022-08-31T15:40:55.808Z,98
2022-08-31T15:46:36.328Z,106
2022-08-31T15:52:52.718Z,82
2022-08-31T15:58:33.608Z,82
2022-08-31T16:04:13.813Z,122
2022-08-31T16:15:13.616Z,98
2022-08-31T16:20:59.076Z,94
2022-08-31T16:26:41.798Z,90
2022-08-31T16:32:22.331Z,94
2022-08-31T16:38:03.014Z,94
2022-08-31T16:43:43.417Z,94
2022-08-31T16:49:23.730Z,94
2022-08-31T16:55:04.118Z,86
2022-08-31T17:00:48.489Z,122
2022-08-31T17:06:31.206Z,96
2022-08-31T17:12:11.527Z,96
2022-08-31T17:17:52.163Z,100
2022-08-31T17:23:32.456Z,88
2022-08-31T17:29:15.388Z,86
2022-08-31T17:34:55.622Z,78
2022-08-31T17:40:36.695Z,94
2022-08-31T17:52:01.790Z,78
2022-08-31T17:57:42.783Z,90
2022-08-31T18:03:31.621Z,122
2022-08-31T18:09:17.692Z,90
2022-08-31T18:14:58.144Z,90
2022-08-31T18:20:41.198Z,80
2022-08-31T18:26:21.547Z,80
2022-08-31T18:32:01.934Z,92
2022-08-31T18:37:42.799Z,74
2022-08-31T18:43:23.143Z,110
2022-08-31T18:49:21.217Z,94
2022-08-31T18:55:01.718Z,86
2022-08-31T19:00:43.154Z,110
2022-08-31T19:06:26.421Z,72
2022-08-31T19:12:10.183Z,72
2022-08-31T19:29:11.446Z,72
2022-08-31T19:34:52.182Z,90
2022-08-31T19:40:40.974Z,78
2022-08-31T19:46:22.223Z,72
2022-08-31T19:52:04.416Z,74
2022-08-31T19:57:46.222Z,74
2022-08-31T20:03:26.931Z,70
2022-08-31T20:09:07.235Z,82
2022-08-31T20:14:47.514Z,76
2022-08-31T20:20:27.992Z,110
2022-08-31T20:26:08.477Z,104
2022-08-31T20:31:49.831Z,98
2022-08-31T20:37:31.243Z,94
2022-08-31T20:43:12.130Z,72
2022-08-31T20:48:52.632Z,88
2022-08-31T20:54:34.608Z,72
2022-08-31T21:00:15.178Z,90
2022-08-31T21:05:55.294Z,82
2022-08-31T21:22:56.145Z,90
2022-08-31T21:28:36.455Z,68
2022-08-31T21:34:25.421Z,74
2022-08-31T21:40:06.968Z,70
2022-08-31T21:45:47.222Z,86
2022-08-31T21:51:28.845Z,86
2022-08-31T21:57:09.143Z,106
2022-08-31T22:02:51.066Z,104
2022-08-31T22:08:32.473Z,100
2022-08-31T22:14:12.572Z,112
2022-08-31T22:19:52.907Z,98
2022-08-31T22:25:33.981Z,106
2022-08-31T22:31:15.705Z,94
2022-08-31T22:36:57.129Z,104
2022-08-31T22:54:00.026Z,90
2022-08-31T22:59:40.258Z,90
2022-08-31T23:05:20.406Z,114
2022-08-31T23:11:00.965Z,104
2022-08-31T23:16:41.648Z,100
2022-08-31T23:22:25.330Z,104
2022-08-31T23:28:07.061Z,104
2022-08-31T23:33:47.230Z,100
2022-08-31T23:39:27.743Z,104
2022-08-31T23:45:08.048Z,104
2022-08-31T23:50:48.002Z,92
2022-08-31T23:56:28.260Z,104
